sensor_id;sensor_type;location;lat;lon;timestamp;P1;durP1;ratioP1;P2;durP2;ratioP2
59418;SDS011;45224;50.904;6.038;2022-10-14T00:00:34;9.38;;;5.20;;
59418;SDS011;45224;50.904;6.038;2022-10-14T00:02:05;9.73;;;5.73;;
59418;SDS011;45224;50.904;6.038;2022-10-14T00:03:36;7.73;;;5.53;;
59418;SDS011;45224;50.904;6.038;2022-10-14T00:05:07;11.13;;;5.13;;
59418;SDS011;45224;50.904;6.038;2022-10-14T00:06:39;8.30;;;5.78;;
59418;SDS011;45224;50.904;6.038;2022-10-14T00:08:09;9.43;;;5.20;;
59418;SDS011;45224;50.904;6.038;2022-10-14T00:09:40;9.10;;;5.47;;
59418;SDS011;45224;50.904;6.038;2022-10-14T00:11:17;8.00;;;5.20;;
59418;SDS011;45224;50.904;6.038;2022-10-14T00:12:49;7.25;;;5.15;;
59418;SDS011;45224;50.904;6.038;2022-10-14T00:14:20;6.00;;;4.68;;
59418;SDS011;45224;50.904;6.038;2022-10-14T00:15:52;7.20;;;5.07;;
59418;SDS011;45224;50.904;6.038;2022-10-14T00:17:23;8.13;;;5.30;;
59418;SDS011;45224;50.904;6.038;2022-10-14T00:18:56;7.70;;;4.90;;
59418;SDS011;45224;50.904;6.038;2022-10-14T00:20:28;7.40;;;5.30;;
59418;SDS011;45224;50.904;6.038;2022-10-14T00:21:59;8.93;;;5.57;;
59418;SDS011;45224;50.904;6.038;2022-10-14T00:23:29;8.60;;;5.30;;
59418;SDS011;45224;50.904;6.038;2022-10-14T00:25:00;9.80;;;5.13;;
59418;SDS011;45224;50.904;6.038;2022-10-14T00:26:34;6.73;;;4.73;;
59418;SDS011;45224;50.904;6.038;2022-10-14T00:28:07;6.75;;;5.20;;
59418;SDS011;45224;50.904;6.038;2022-10-14T00:29:37;8.83;;;5.33;;
59418;SDS011;45224;50.904;6.038;2022-10-14T00:31:08;6.50;;;5.13;;
59418;SDS011;45224;50.904;6.038;2022-10-14T00:32:38;8.60;;;4.97;;
59418;SDS011;45224;50.904;6.038;2022-10-14T00:34:09;7.57;;;5.53;;
59418;SDS011;45224;50.904;6.038;2022-10-14T00:35:42;8.75;;;4.93;;
59418;SDS011;45224;50.904;6.038;2022-10-14T00:37:12;6.85;;;4.70;;
59418;SDS011;45224;50.904;6.038;2022-10-14T00:38:43;7.23;;;4.83;;
59418;SDS011;45224;50.904;6.038;2022-10-14T00:40:17;6.53;;;4.47;;
59418;SDS011;45224;50.904;6.038;2022-10-14T00:41:49;8.23;;;5.60;;
59418;SDS011;45224;50.904;6.038;2022-10-14T00:43:20;8.27;;;5.07;;
59418;SDS011;45224;50.904;6.038;2022-10-14T00:45:00;6.43;;;5.00;;
59418;SDS011;45224;50.904;6.038;2022-10-14T00:46:42;7.45;;;5.00;;
59418;SDS011;45224;50.904;6.038;2022-10-14T00:48:18;7.00;;;4.78;;
59418;SDS011;45224;50.904;6.038;2022-10-14T00:49:54;8.02;;;5.32;;
59418;SDS011;45224;50.904;6.038;2022-10-14T00:51:26;9.73;;;5.18;;
59418;SDS011;45224;50.904;6.038;2022-10-14T00:52:57;8.00;;;5.65;;
59418;SDS011;45224;50.904;6.038;2022-10-14T00:54:30;8.32;;;5.07;;
59418;SDS011;45224;50.904;6.038;2022-10-14T00:56:04;7.03;;;5.13;;
59418;SDS011;45224;50.904;6.038;2022-10-14T00:57:37;8.00;;;5.50;;
59418;SDS011;45224;50.904;6.038;2022-10-14T00:59:07;7.55;;;5.30;;
59418;SDS011;45224;50.904;6.038;2022-10-14T01:00:38;7.38;;;5.25;;
59418;SDS011;45224;50.904;6.038;2022-10-14T01:02:09;6.57;;;5.25;;
59418;SDS011;45224;50.904;6.038;2022-10-14T01:03:40;7.47;;;5.05;;
59418;SDS011;45224;50.904;6.038;2022-10-14T01:05:11;6.22;;;4.43;;
59418;SDS011;45224;50.904;6.038;2022-10-14T01:10:48;6.18;;;4.53;;
59418;SDS011;45224;50.904;6.038;2022-10-14T01:16:03;9.27;;;5.32;;
59418;SDS011;45224;50.904;6.038;2022-10-14T01:21:41;9.00;;;5.00;;
59418;SDS011;45224;50.904;6.038;2022-10-14T01:27:04;10.55;;;5.38;;
59418;SDS011;45224;50.904;6.038;2022-10-14T01:30:46;8.20;;;5.07;;
59418;SDS011;45224;50.904;6.038;2022-10-14T01:32:40;10.02;;;5.32;;
59418;SDS011;45224;50.904;6.038;2022-10-14T01:34:20;7.68;;;5.53;;
59418;SDS011;45224;50.904;6.038;2022-10-14T01:36:01;9.38;;;5.40;;
59418;SDS011;45224;50.904;6.038;2022-10-14T01:37:57;8.38;;;5.13;;
59418;SDS011;45224;50.904;6.038;2022-10-14T01:40:02;8.90;;;5.25;;
59418;SDS011;45224;50.904;6.038;2022-10-14T01:41:42;9.27;;;5.53;;
59418;SDS011;45224;50.904;6.038;2022-10-14T01:43:17;8.73;;;5.53;;
59418;SDS011;45224;50.904;6.038;2022-10-14T01:44:52;10.90;;;5.55;;
59418;SDS011;45224;50.904;6.038;2022-10-14T01:46:28;6.97;;;5.13;;
59418;SDS011;45224;50.904;6.038;2022-10-14T01:48:00;9.00;;;6.20;;
59418;SDS011;45224;50.904;6.038;2022-10-14T01:49:35;7.97;;;5.05;;
59418;SDS011;45224;50.904;6.038;2022-10-14T01:51:11;8.20;;;5.25;;
59418;SDS011;45224;50.904;6.038;2022-10-14T01:52:47;9.95;;;4.57;;
59418;SDS011;45224;50.904;6.038;2022-10-14T01:54:26;10.57;;;5.45;;
59418;SDS011;45224;50.904;6.038;2022-10-14T01:56:01;9.43;;;5.43;;
59418;SDS011;45224;50.904;6.038;2022-10-14T01:57:34;8.40;;;5.55;;
59418;SDS011;45224;50.904;6.038;2022-10-14T01:59:08;7.82;;;5.07;;
59418;SDS011;45224;50.904;6.038;2022-10-14T02:00:41;8.43;;;5.57;;
59418;SDS011;45224;50.904;6.038;2022-10-14T02:02:11;7.90;;;5.10;;
59418;SDS011;45224;50.904;6.038;2022-10-14T02:03:45;9.00;;;5.07;;
59418;SDS011;45224;50.904;6.038;2022-10-14T02:06:54;7.90;;;5.28;;
59418;SDS011;45224;50.904;6.038;2022-10-14T02:09:21;7.22;;;5.18;;
59418;SDS011;45224;50.904;6.038;2022-10-14T02:15:38;7.47;;;4.55;;
59418;SDS011;45224;50.904;6.038;2022-10-14T02:19:24;8.00;;;4.50;;
59418;SDS011;45224;50.904;6.038;2022-10-14T02:21:20;7.25;;;4.20;;
59418;SDS011;45224;50.904;6.038;2022-10-14T02:22:59;6.32;;;4.60;;
59418;SDS011;45224;50.904;6.038;2022-10-14T02:24:37;7.60;;;5.13;;
59418;SDS011;45224;50.904;6.038;2022-10-14T02:26:11;7.00;;;4.38;;
59418;SDS011;45224;50.904;6.038;2022-10-14T02:27:43;7.97;;;4.40;;
59418;SDS011;45224;50.904;6.038;2022-10-14T02:29:16;7.40;;;4.78;;
59418;SDS011;45224;50.904;6.038;2022-10-14T02:30:50;7.13;;;4.40;;
59418;SDS011;45224;50.904;6.038;2022-10-14T02:32:24;5.97;;;4.50;;
59418;SDS011;45224;50.904;6.038;2022-10-14T02:33:58;7.57;;;4.88;;
59418;SDS011;45224;50.904;6.038;2022-10-14T02:35:32;6.97;;;4.57;;
59418;SDS011;45224;50.904;6.038;2022-10-14T02:37:07;7.13;;;4.60;;
59418;SDS011;45224;50.904;6.038;2022-10-14T02:38:38;8.32;;;4.47;;
59418;SDS011;45224;50.904;6.038;2022-10-14T02:40:13;7.05;;;4.63;;
59418;SDS011;45224;50.904;6.038;2022-10-14T02:41:47;7.78;;;5.40;;
59418;SDS011;45224;50.904;6.038;2022-10-14T02:43:18;8.87;;;5.57;;
59418;SDS011;45224;50.904;6.038;2022-10-14T02:44:52;8.70;;;4.88;;
59418;SDS011;45224;50.904;6.038;2022-10-14T02:46:24;11.30;;;5.30;;
59418;SDS011;45224;50.904;6.038;2022-10-14T02:47:55;10.10;;;4.83;;
59418;SDS011;45224;50.904;6.038;2022-10-14T02:49:25;9.87;;;5.13;;
59418;SDS011;45224;50.904;6.038;2022-10-14T02:50:56;11.70;;;5.30;;
59418;SDS011;45224;50.904;6.038;2022-10-14T02:52:26;8.07;;;4.85;;
59418;SDS011;45224;50.904;6.038;2022-10-14T02:53:57;7.90;;;5.00;;
59418;SDS011;45224;50.904;6.038;2022-10-14T02:55:29;7.18;;;4.43;;
59418;SDS011;45224;50.904;6.038;2022-10-14T02:57:00;6.30;;;4.30;;
59418;SDS011;45224;50.904;6.038;2022-10-14T02:58:30;6.63;;;4.17;;
59418;SDS011;45224;50.904;6.038;2022-10-14T03:00:03;8.88;;;4.68;;
59418;SDS011;45224;50.904;6.038;2022-10-14T03:01:35;7.65;;;4.38;;
59418;SDS011;45224;50.904;6.038;2022-10-14T03:03:05;6.35;;;4.30;;
59418;SDS011;45224;50.904;6.038;2022-10-14T03:04:36;8.70;;;4.87;;
59418;SDS011;45224;50.904;6.038;2022-10-14T03:06:07;8.02;;;4.63;;
59418;SDS011;45224;50.904;6.038;2022-10-14T03:07:38;7.05;;;4.40;;
59418;SDS011;45224;50.904;6.038;2022-10-14T03:09:11;7.50;;;4.78;;
59418;SDS011;45224;50.904;6.038;2022-10-14T03:10:44;8.15;;;4.57;;
59418;SDS011;45224;50.904;6.038;2022-10-14T03:12:16;7.88;;;4.45;;
59418;SDS011;45224;50.904;6.038;2022-10-14T03:15:18;7.20;;;4.37;;
59418;SDS011;45224;50.904;6.038;2022-10-14T03:16:50;5.07;;;3.72;;
59418;SDS011;45224;50.904;6.038;2022-10-14T03:18:25;9.95;;;4.90;;
59418;SDS011;45224;50.904;6.038;2022-10-14T03:20:01;6.18;;;4.38;;
59418;SDS011;45224;50.904;6.038;2022-10-14T03:21:33;8.13;;;4.80;;
59418;SDS011;45224;50.904;6.038;2022-10-14T03:23:04;8.93;;;4.90;;
59418;SDS011;45224;50.904;6.038;2022-10-14T03:24:38;7.03;;;4.50;;
59418;SDS011;45224;50.904;6.038;2022-10-14T03:26:28;7.25;;;4.30;;
59418;SDS011;45224;50.904;6.038;2022-10-14T03:27:59;7.50;;;5.07;;
59418;SDS011;45224;50.904;6.038;2022-10-14T03:29:41;5.80;;;4.13;;
59418;SDS011;45224;50.904;6.038;2022-10-14T03:31:29;7.28;;;4.85;;
59418;SDS011;45224;50.904;6.038;2022-10-14T03:33:32;9.30;;;4.97;;
59418;SDS011;45224;50.904;6.038;2022-10-14T03:35:13;5.57;;;3.70;;
59418;SDS011;45224;50.904;6.038;2022-10-14T03:36:47;6.00;;;4.22;;
59418;SDS011;45224;50.904;6.038;2022-10-14T03:38:18;12.40;;;5.63;;
59418;SDS011;45224;50.904;6.038;2022-10-14T03:41:21;9.32;;;5.10;;
59418;SDS011;45224;50.904;6.038;2022-10-14T03:42:51;8.00;;;5.27;;
59418;SDS011;45224;50.904;6.038;2022-10-14T03:44:24;7.35;;;4.72;;
59418;SDS011;45224;50.904;6.038;2022-10-14T03:46:14;6.57;;;4.18;;
59418;SDS011;45224;50.904;6.038;2022-10-14T03:47:45;6.90;;;4.60;;
59418;SDS011;45224;50.904;6.038;2022-10-14T03:49:15;10.77;;;7.47;;
59418;SDS011;45224;50.904;6.038;2022-10-14T03:50:47;8.30;;;5.10;;
59418;SDS011;45224;50.904;6.038;2022-10-14T03:52:17;7.93;;;5.53;;
59418;SDS011;45224;50.904;6.038;2022-10-14T03:53:50;6.75;;;4.82;;
59418;SDS011;45224;50.904;6.038;2022-10-14T03:55:28;7.95;;;5.00;;
59418;SDS011;45224;50.904;6.038;2022-10-14T03:56:59;7.90;;;4.80;;
59418;SDS011;45224;50.904;6.038;2022-10-14T03:58:33;7.53;;;4.53;;
59418;SDS011;45224;50.904;6.038;2022-10-14T04:00:09;6.20;;;4.53;;
59418;SDS011;45224;50.904;6.038;2022-10-14T04:01:44;7.60;;;5.05;;
59418;SDS011;45224;50.904;6.038;2022-10-14T04:03:25;6.18;;;4.72;;
59418;SDS011;45224;50.904;6.038;2022-10-14T04:04:58;6.93;;;4.85;;
59418;SDS011;45224;50.904;6.038;2022-10-14T04:06:29;6.93;;;4.35;;
59418;SDS011;45224;50.904;6.038;2022-10-14T04:08:02;7.90;;;4.60;;
59418;SDS011;45224;50.904;6.038;2022-10-14T04:09:32;6.05;;;4.47;;
59418;SDS011;45224;50.904;6.038;2022-10-14T04:11:03;6.30;;;4.23;;
59418;SDS011;45224;50.904;6.038;2022-10-14T04:12:39;8.20;;;4.28;;
59418;SDS011;45224;50.904;6.038;2022-10-14T04:14:14;5.97;;;4.07;;
59418;SDS011;45224;50.904;6.038;2022-10-14T04:15:50;6.35;;;3.80;;
59418;SDS011;45224;50.904;6.038;2022-10-14T04:17:25;4.18;;;3.17;;
59418;SDS011;45224;50.904;6.038;2022-10-14T04:18:58;5.65;;;3.40;;
59418;SDS011;45224;50.904;6.038;2022-10-14T04:20:28;3.80;;;3.17;;
59418;SDS011;45224;50.904;6.038;2022-10-14T04:22:00;4.78;;;2.85;;
59418;SDS011;45224;50.904;6.038;2022-10-14T04:25:08;5.28;;;2.78;;
59418;SDS011;45224;50.904;6.038;2022-10-14T04:26:39;3.92;;;3.10;;
59418;SDS011;45224;50.904;6.038;2022-10-14T04:28:16;5.82;;;4.10;;
59418;SDS011;45224;50.904;6.038;2022-10-14T04:29:56;5.55;;;3.53;;
59418;SDS011;45224;50.904;6.038;2022-10-14T04:31:31;5.13;;;3.50;;
59418;SDS011;45224;50.904;6.038;2022-10-14T04:33:05;5.38;;;3.72;;
59418;SDS011;45224;50.904;6.038;2022-10-14T04:34:36;5.72;;;3.20;;
59418;SDS011;45224;50.904;6.038;2022-10-14T04:36:08;4.88;;;3.20;;
59418;SDS011;45224;50.904;6.038;2022-10-14T04:37:41;5.07;;;3.25;;
59418;SDS011;45224;50.904;6.038;2022-10-14T04:39:16;4.53;;;3.10;;
59418;SDS011;45224;50.904;6.038;2022-10-14T04:40:47;5.40;;;3.03;;
59418;SDS011;45224;50.904;6.038;2022-10-14T04:42:17;6.40;;;3.53;;
59418;SDS011;45224;50.904;6.038;2022-10-14T04:43:51;5.47;;;3.15;;
59418;SDS011;45224;50.904;6.038;2022-10-14T04:45:51;4.28;;;3.20;;
59418;SDS011;45224;50.904;6.038;2022-10-14T04:47:28;4.30;;;3.00;;
59418;SDS011;45224;50.904;6.038;2022-10-14T04:49:04;5.15;;;3.17;;
59418;SDS011;45224;50.904;6.038;2022-10-14T04:50:40;5.85;;;3.38;;
59418;SDS011;45224;50.904;6.038;2022-10-14T04:52:46;4.15;;;3.08;;
59418;SDS011;45224;50.904;6.038;2022-10-14T04:54:17;4.53;;;3.22;;
59418;SDS011;45224;50.904;6.038;2022-10-14T04:55:55;6.70;;;3.10;;
59418;SDS011;45224;50.904;6.038;2022-10-14T04:57:25;6.00;;;3.10;;
59418;SDS011;45224;50.904;6.038;2022-10-14T04:58:56;4.73;;;3.00;;
59418;SDS011;45224;50.904;6.038;2022-10-14T05:00:35;4.68;;;3.40;;
59418;SDS011;45224;50.904;6.038;2022-10-14T05:02:15;5.10;;;3.00;;
59418;SDS011;45224;50.904;6.038;2022-10-14T05:03:55;3.60;;;2.90;;
59418;SDS011;45224;50.904;6.038;2022-10-14T05:05:26;5.50;;;3.73;;
59418;SDS011;45224;50.904;6.038;2022-10-14T05:06:59;4.68;;;3.13;;
59418;SDS011;45224;50.904;6.038;2022-10-14T05:08:31;5.35;;;2.95;;
59418;SDS011;45224;50.904;6.038;2022-10-14T05:10:04;3.72;;;2.83;;
59418;SDS011;45224;50.904;6.038;2022-10-14T05:11:44;4.15;;;2.90;;
59418;SDS011;45224;50.904;6.038;2022-10-14T05:13:17;4.25;;;3.17;;
59418;SDS011;45224;50.904;6.038;2022-10-14T05:14:58;5.00;;;3.15;;
59418;SDS011;45224;50.904;6.038;2022-10-14T05:16:40;4.90;;;3.30;;
59418;SDS011;45224;50.904;6.038;2022-10-14T05:18:12;3.33;;;2.83;;
59418;SDS011;45224;50.904;6.038;2022-10-14T05:19:54;4.45;;;3.08;;
59418;SDS011;45224;50.904;6.038;2022-10-14T05:21:26;6.05;;;2.88;;
59418;SDS011;45224;50.904;6.038;2022-10-14T05:23:15;5.25;;;2.70;;
59418;SDS011;45224;50.904;6.038;2022-10-14T05:24:46;4.60;;;2.97;;
59418;SDS011;45224;50.904;6.038;2022-10-14T05:26:17;5.50;;;3.22;;
59418;SDS011;45224;50.904;6.038;2022-10-14T05:27:48;4.68;;;3.30;;
59418;SDS011;45224;50.904;6.038;2022-10-14T05:29:19;4.30;;;3.03;;
59418;SDS011;45224;50.904;6.038;2022-10-14T05:30:53;4.57;;;3.50;;
59418;SDS011;45224;50.904;6.038;2022-10-14T05:32:24;5.55;;;3.55;;
59418;SDS011;45224;50.904;6.038;2022-10-14T05:34:01;5.28;;;3.65;;
59418;SDS011;45224;50.904;6.038;2022-10-14T05:35:32;7.55;;;3.50;;
59418;SDS011;45224;50.904;6.038;2022-10-14T05:37:02;6.03;;;3.80;;
59418;SDS011;45224;50.904;6.038;2022-10-14T05:38:39;8.43;;;3.58;;
59418;SDS011;45224;50.904;6.038;2022-10-14T05:40:10;6.65;;;3.67;;
59418;SDS011;45224;50.904;6.038;2022-10-14T05:41:41;5.45;;;3.65;;
59418;SDS011;45224;50.904;6.038;2022-10-14T05:43:12;8.23;;;3.63;;
59418;SDS011;45224;50.904;6.038;2022-10-14T05:44:46;6.00;;;3.95;;
59418;SDS011;45224;50.904;6.038;2022-10-14T05:46:17;8.05;;;4.00;;
59418;SDS011;45224;50.904;6.038;2022-10-14T05:47:54;4.63;;;3.30;;
59418;SDS011;45224;50.904;6.038;2022-10-14T05:49:25;10.38;;;4.00;;
59418;SDS011;45224;50.904;6.038;2022-10-14T05:50:58;5.70;;;3.70;;
59418;SDS011;45224;50.904;6.038;2022-10-14T05:52:31;4.22;;;3.35;;
59418;SDS011;45224;50.904;6.038;2022-10-14T05:54:05;5.00;;;3.70;;
59418;SDS011;45224;50.904;6.038;2022-10-14T05:55:36;7.15;;;3.92;;
59418;SDS011;45224;50.904;6.038;2022-10-14T05:57:06;5.70;;;3.72;;
59418;SDS011;45224;50.904;6.038;2022-10-14T05:58:37;5.10;;;3.67;;
59418;SDS011;45224;50.904;6.038;2022-10-14T06:00:08;5.25;;;3.58;;
59418;SDS011;45224;50.904;6.038;2022-10-14T06:01:47;6.22;;;4.18;;
59418;SDS011;45224;50.904;6.038;2022-10-14T06:03:17;5.70;;;3.87;;
59418;SDS011;45224;50.904;6.038;2022-10-14T06:04:48;5.97;;;3.30;;
59418;SDS011;45224;50.904;6.038;2022-10-14T06:06:18;6.80;;;3.83;;
59418;SDS011;45224;50.904;6.038;2022-10-14T06:07:49;5.87;;;3.83;;
59418;SDS011;45224;50.904;6.038;2022-10-14T06:09:20;7.18;;;4.28;;
59418;SDS011;45224;50.904;6.038;2022-10-14T06:10:50;11.43;;;4.87;;
59418;SDS011;45224;50.904;6.038;2022-10-14T06:12:21;7.13;;;4.25;;
59418;SDS011;45224;50.904;6.038;2022-10-14T06:13:51;8.07;;;4.50;;
59418;SDS011;45224;50.904;6.038;2022-10-14T06:15:22;6.53;;;4.50;;
59418;SDS011;45224;50.904;6.038;2022-10-14T06:16:53;7.93;;;4.28;;
59418;SDS011;45224;50.904;6.038;2022-10-14T06:18:24;7.28;;;4.60;;
59418;SDS011;45224;50.904;6.038;2022-10-14T06:19:54;10.67;;;5.10;;
59418;SDS011;45224;50.904;6.038;2022-10-14T06:21:25;7.07;;;4.57;;
59418;SDS011;45224;50.904;6.038;2022-10-14T06:22:55;6.63;;;4.10;;
59418;SDS011;45224;50.904;6.038;2022-10-14T06:24:27;7.63;;;5.13;;
59418;SDS011;45224;50.904;6.038;2022-10-14T06:25:59;6.90;;;4.67;;
59418;SDS011;45224;50.904;6.038;2022-10-14T06:27:33;5.72;;;4.55;;
59418;SDS011;45224;50.904;6.038;2022-10-14T06:29:03;5.83;;;4.07;;
59418;SDS011;45224;50.904;6.038;2022-10-14T06:30:33;8.10;;;4.53;;
59418;SDS011;45224;50.904;6.038;2022-10-14T06:32:04;6.13;;;4.17;;
59418;SDS011;45224;50.904;6.038;2022-10-14T06:33:36;6.75;;;4.25;;
59418;SDS011;45224;50.904;6.038;2022-10-14T06:35:06;5.53;;;3.70;;
59418;SDS011;45224;50.904;6.038;2022-10-14T06:36:37;7.70;;;4.13;;
59418;SDS011;45224;50.904;6.038;2022-10-14T06:38:08;5.67;;;3.63;;
59418;SDS011;45224;50.904;6.038;2022-10-14T06:39:38;5.53;;;3.70;;
59418;SDS011;45224;50.904;6.038;2022-10-14T06:41:10;5.30;;;3.95;;
59418;SDS011;45224;50.904;6.038;2022-10-14T06:42:41;5.47;;;3.77;;
59418;SDS011;45224;50.904;6.038;2022-10-14T06:44:11;9.40;;;4.27;;
59418;SDS011;45224;50.904;6.038;2022-10-14T06:45:44;5.38;;;3.72;;
59418;SDS011;45224;50.904;6.038;2022-10-14T06:47:15;5.73;;;4.00;;
59418;SDS011;45224;50.904;6.038;2022-10-14T06:48:45;5.40;;;3.60;;
59418;SDS011;45224;50.904;6.038;2022-10-14T06:50:16;5.40;;;3.83;;
59418;SDS011;45224;50.904;6.038;2022-10-14T06:51:46;6.63;;;4.50;;
59418;SDS011;45224;50.904;6.038;2022-10-14T06:53:16;5.80;;;4.03;;
59418;SDS011;45224;50.904;6.038;2022-10-14T06:54:47;9.03;;;4.10;;
59418;SDS011;45224;50.904;6.038;2022-10-14T06:56:18;8.40;;;4.03;;
59418;SDS011;45224;50.904;6.038;2022-10-14T06:57:48;8.23;;;3.90;;
59418;SDS011;45224;50.904;6.038;2022-10-14T06:59:19;8.57;;;4.00;;
59418;SDS011;45224;50.904;6.038;2022-10-14T07:00:49;5.78;;;4.07;;
59418;SDS011;45224;50.904;6.038;2022-10-14T07:02:20;7.37;;;4.17;;
59418;SDS011;45224;50.904;6.038;2022-10-14T07:03:50;7.20;;;3.87;;
59418;SDS011;45224;50.904;6.038;2022-10-14T07:05:21;6.17;;;3.60;;
59418;SDS011;45224;50.904;6.038;2022-10-14T07:06:51;7.47;;;3.70;;
59418;SDS011;45224;50.904;6.038;2022-10-14T07:08:22;5.23;;;3.80;;
59418;SDS011;45224;50.904;6.038;2022-10-14T07:09:52;6.07;;;4.17;;
59418;SDS011;45224;50.904;6.038;2022-10-14T07:11:23;7.68;;;4.18;;
59418;SDS011;45224;50.904;6.038;2022-10-14T07:12:53;8.50;;;4.20;;
59418;SDS011;45224;50.904;6.038;2022-10-14T07:14:24;5.18;;;3.35;;
59418;SDS011;45224;50.904;6.038;2022-10-14T07:15:55;4.77;;;3.27;;
59418;SDS011;45224;50.904;6.038;2022-10-14T07:17:25;7.07;;;4.20;;
59418;SDS011;45224;50.904;6.038;2022-10-14T07:18:56;6.47;;;4.10;;
59418;SDS011;45224;50.904;6.038;2022-10-14T07:20:26;4.80;;;3.37;;
59418;SDS011;45224;50.904;6.038;2022-10-14T07:21:56;4.50;;;3.30;;
59418;SDS011;45224;50.904;6.038;2022-10-14T07:23:27;5.70;;;3.60;;
59418;SDS011;45224;50.904;6.038;2022-10-14T07:24:57;7.00;;;3.77;;
59418;SDS011;45224;50.904;6.038;2022-10-14T07:26:31;5.73;;;3.77;;
59418;SDS011;45224;50.904;6.038;2022-10-14T07:28:02;7.88;;;3.78;;
59418;SDS011;45224;50.904;6.038;2022-10-14T07:29:33;5.82;;;3.40;;
59418;SDS011;45224;50.904;6.038;2022-10-14T07:31:06;6.50;;;3.67;;
59418;SDS011;45224;50.904;6.038;2022-10-14T07:32:39;5.45;;;3.83;;
59418;SDS011;45224;50.904;6.038;2022-10-14T07:34:09;9.20;;;4.00;;
59418;SDS011;45224;50.904;6.038;2022-10-14T07:35:39;5.83;;;3.73;;
59418;SDS011;45224;50.904;6.038;2022-10-14T07:37:10;7.93;;;3.60;;
59418;SDS011;45224;50.904;6.038;2022-10-14T07:38:41;8.77;;;3.70;;
59418;SDS011;45224;50.904;6.038;2022-10-14T07:40:12;7.72;;;4.05;;
59418;SDS011;45224;50.904;6.038;2022-10-14T07:41:43;7.40;;;4.30;;
59418;SDS011;45224;50.904;6.038;2022-10-14T07:43:13;8.27;;;4.30;;
59418;SDS011;45224;50.904;6.038;2022-10-14T07:44:44;8.77;;;4.93;;
59418;SDS011;45224;50.904;6.038;2022-10-14T07:46:15;7.45;;;4.35;;
59418;SDS011;45224;50.904;6.038;2022-10-14T07:47:57;5.35;;;3.85;;
59418;SDS011;45224;50.904;6.038;2022-10-14T07:49:28;6.37;;;3.77;;
59418;SDS011;45224;50.904;6.038;2022-10-14T07:50:58;4.95;;;3.70;;
59418;SDS011;45224;50.904;6.038;2022-10-14T07:52:29;7.47;;;3.88;;
59418;SDS011;45224;50.904;6.038;2022-10-14T07:54:00;5.93;;;3.90;;
59418;SDS011;45224;50.904;6.038;2022-10-14T07:55:31;6.05;;;3.92;;
59418;SDS011;45224;50.904;6.038;2022-10-14T07:57:02;5.50;;;3.80;;
59418;SDS011;45224;50.904;6.038;2022-10-14T07:58:33;6.57;;;4.45;;
59418;SDS011;45224;50.904;6.038;2022-10-14T08:00:03;5.83;;;4.27;;
59418;SDS011;45224;50.904;6.038;2022-10-14T08:01:42;6.65;;;4.53;;
59418;SDS011;45224;50.904;6.038;2022-10-14T08:03:15;8.82;;;5.00;;
59418;SDS011;45224;50.904;6.038;2022-10-14T08:04:46;7.30;;;4.80;;
59418;SDS011;45224;50.904;6.038;2022-10-14T08:06:21;6.13;;;4.40;;
59418;SDS011;45224;50.904;6.038;2022-10-14T08:07:52;8.93;;;4.53;;
59418;SDS011;45224;50.904;6.038;2022-10-14T08:09:22;8.03;;;4.30;;
59418;SDS011;45224;50.904;6.038;2022-10-14T08:11:00;6.47;;;3.90;;
59418;SDS011;45224;50.904;6.038;2022-10-14T08:12:35;5.45;;;3.78;;
59418;SDS011;45224;50.904;6.038;2022-10-14T08:14:05;6.87;;;3.67;;
59418;SDS011;45224;50.904;6.038;2022-10-14T08:15:39;5.88;;;4.18;;
59418;SDS011;45224;50.904;6.038;2022-10-14T08:17:11;7.60;;;4.30;;
59418;SDS011;45224;50.904;6.038;2022-10-14T08:18:42;7.00;;;4.50;;
59418;SDS011;45224;50.904;6.038;2022-10-14T08:20:13;8.38;;;4.53;;
59418;SDS011;45224;50.904;6.038;2022-10-14T08:21:43;5.90;;;3.60;;
59418;SDS011;45224;50.904;6.038;2022-10-14T08:23:14;9.63;;;4.30;;
59418;SDS011;45224;50.904;6.038;2022-10-14T08:24:44;8.00;;;4.40;;
59418;SDS011;45224;50.904;6.038;2022-10-14T08:27:56;7.53;;;4.07;;
59418;SDS011;45224;50.904;6.038;2022-10-14T08:29:27;7.40;;;4.07;;
59418;SDS011;45224;50.904;6.038;2022-10-14T08:30:57;7.50;;;4.10;;
59418;SDS011;45224;50.904;6.038;2022-10-14T08:32:28;9.90;;;4.17;;
59418;SDS011;45224;50.904;6.038;2022-10-14T08:33:58;12.73;;;4.43;;
59418;SDS011;45224;50.904;6.038;2022-10-14T08:35:29;6.03;;;4.07;;
59418;SDS011;45224;50.904;6.038;2022-10-14T08:37:00;6.43;;;3.50;;
59418;SDS011;45224;50.904;6.038;2022-10-14T08:38:31;8.98;;;3.80;;
59418;SDS011;45224;50.904;6.038;2022-10-14T08:40:02;5.27;;;3.77;;
59418;SDS011;45224;50.904;6.038;2022-10-14T08:41:37;7.80;;;3.72;;
59418;SDS011;45224;50.904;6.038;2022-10-14T08:43:30;5.82;;;3.60;;
59418;SDS011;45224;50.904;6.038;2022-10-14T08:45:09;4.85;;;3.22;;
59418;SDS011;45224;50.904;6.038;2022-10-14T08:46:46;6.35;;;3.70;;
59418;SDS011;45224;50.904;6.038;2022-10-14T08:48:21;5.93;;;3.55;;
59418;SDS011;45224;50.904;6.038;2022-10-14T08:50:03;6.25;;;3.47;;
59418;SDS011;45224;50.904;6.038;2022-10-14T08:51:47;6.63;;;3.92;;
59418;SDS011;45224;50.904;6.038;2022-10-14T08:53:45;6.85;;;3.63;;
59418;SDS011;45224;50.904;6.038;2022-10-14T08:55:25;10.75;;;4.32;;
59418;SDS011;45224;50.904;6.038;2022-10-14T08:57:02;6.65;;;3.92;;
59418;SDS011;45224;50.904;6.038;2022-10-14T08:58:41;7.38;;;4.63;;
59418;SDS011;45224;50.904;6.038;2022-10-14T09:00:15;7.07;;;4.47;;
59418;SDS011;45224;50.904;6.038;2022-10-14T09:01:51;6.05;;;4.10;;
59418;SDS011;45224;50.904;6.038;2022-10-14T09:03:33;7.57;;;3.65;;
59418;SDS011;45224;50.904;6.038;2022-10-14T09:05:08;11.15;;;3.65;;
59418;SDS011;45224;50.904;6.038;2022-10-14T09:06:45;6.38;;;3.88;;
59418;SDS011;45224;50.904;6.038;2022-10-14T09:08:26;7.38;;;3.72;;
59418;SDS011;45224;50.904;6.038;2022-10-14T09:10:05;5.50;;;3.28;;
59418;SDS011;45224;50.904;6.038;2022-10-14T09:11:41;6.03;;;4.03;;
59418;SDS011;45224;50.904;6.038;2022-10-14T09:13:17;9.65;;;4.93;;
59418;SDS011;45224;50.904;6.038;2022-10-14T09:16:28;15.20;;;8.30;;
59418;SDS011;45224;50.904;6.038;2022-10-14T09:18:05;8.50;;;5.63;;
59418;SDS011;45224;50.904;6.038;2022-10-14T09:21:48;7.15;;;4.18;;
59418;SDS011;45224;50.904;6.038;2022-10-14T09:23:22;8.32;;;4.97;;
59418;SDS011;45224;50.904;6.038;2022-10-14T09:24:54;7.47;;;4.82;;
59418;SDS011;45224;50.904;6.038;2022-10-14T09:26:24;7.73;;;4.47;;
59418;SDS011;45224;50.904;6.038;2022-10-14T09:28:07;10.35;;;5.43;;
59418;SDS011;45224;50.904;6.038;2022-10-14T09:31:10;11.60;;;6.00;;
59418;SDS011;45224;50.904;6.038;2022-10-14T09:32:46;10.40;;;5.90;;
59418;SDS011;45224;50.904;6.038;2022-10-14T09:34:19;10.30;;;4.95;;
59418;SDS011;45224;50.904;6.038;2022-10-14T09:35:57;25.38;;;13.13;;
59418;SDS011;45224;50.904;6.038;2022-10-14T09:37:32;47.20;;;27.52;;
59418;SDS011;45224;50.904;6.038;2022-10-14T09:39:07;15.77;;;10.20;;
59418;SDS011;45224;50.904;6.038;2022-10-14T09:40:42;12.48;;;7.70;;
59418;SDS011;45224;50.904;6.038;2022-10-14T09:42:17;8.85;;;6.10;;
59418;SDS011;45224;50.904;6.038;2022-10-14T09:47:20;13.45;;;7.00;;
59418;SDS011;45224;50.904;6.038;2022-10-14T09:48:51;13.50;;;6.40;;
59418;SDS011;45224;50.904;6.038;2022-10-14T09:50:38;8.35;;;5.30;;
59418;SDS011;45224;50.904;6.038;2022-10-14T09:52:23;8.25;;;4.57;;
59418;SDS011;45224;50.904;6.038;2022-10-14T09:53:58;9.75;;;5.22;;
59418;SDS011;45224;50.904;6.038;2022-10-14T09:55:31;9.65;;;5.75;;
59418;SDS011;45224;50.904;6.038;2022-10-14T09:57:06;8.07;;;5.05;;
59418;SDS011;45224;50.904;6.038;2022-10-14T09:58:50;8.20;;;4.38;;
59418;SDS011;45224;50.904;6.038;2022-10-14T10:00:25;7.15;;;4.60;;
59418;SDS011;45224;50.904;6.038;2022-10-14T10:01:59;10.65;;;5.32;;
59418;SDS011;45224;50.904;6.038;2022-10-14T10:03:32;8.05;;;5.63;;
59418;SDS011;45224;50.904;6.038;2022-10-14T10:05:37;10.98;;;7.55;;
59418;SDS011;45224;50.904;6.038;2022-10-14T10:07:04;9.25;;;6.05;;